カイロ の空港の天気 - METARとTAF

カイロ国際空港 ( HECA / CAI ) - エジプト [カイロ
飛行場実況気象(Metar)
観測時間05/28 13:00 EET (05/28 11:00 UTC)
風向・風速北 5m/s
視程6000m
天気現象
なし
気温34℃
湿度22%
気圧1009hPa
METARHECA 281100Z 01010KT 6000 NSC 34/09 Q1009
過去の天気等 Google飛行場航空写真 Wunderground天気予報

過去48時間のMETAR

飛行場予報(TAF)
発表時間: 5/28 13:00 EET (5/28 11:00 UTC)
予報対象時間: 28日14時 EET ~ 29日20時 EET
風向・風速北 5m/s
視程10km以上
なし
28日8時 EET ~ 28日11時 EET に一時的に
風向・風速不定 2m/s
視程3000m
天気現象煙霧
なし
TAF HECA 281100Z 2812/2918 36010KT CAVOK
TEMPO 2806/2809 VRB03KT 3000 HZ NSC